Creston, Iowa
Current Conditions -  °F | °C
As of 1:15 AM on Friday 31 Oct 2014 (Local Time) from KCSQ Reporting Station
Overcast Overcast  
Wind Chill: 28°   Ceiling: 3000
Heat Index: 39°   Visibility: 10mi
Dew Point: 32°   Wind: 24mph
Humidity: 75%   Direction: 350°N
Pressure: 30.31"   Gusts: 32mph
Location:  41.06°N, 94.37°W
Report Text: KCSQ 310615Z AUTO 35021G28KT 10SM SCT021 SCT025 OVC030 04/M00 A3031 RMK AO2
Loading
Personal Weather Stations






























Interactive Weather Map
Tropical Storm Tracking
New forecast layout! Learn more

10-Day Weather Forecast

Advertisements
Track Severe Weather on mobile